sensor_id;sensor_type;location;lat;lon;timestamp;temperature;humidity
39315;DHT22;28703;44.412;11.918;2023-02-26T00:00:07;13.40;99.90
39315;DHT22;28703;44.412;11.918;2023-02-26T00:02:36;13.40;99.90
39315;DHT22;28703;44.412;11.918;2023-02-26T00:05:06;13.40;99.90
39315;DHT22;28703;44.412;11.918;2023-02-26T00:07:33;13.40;99.90
39315;DHT22;28703;44.412;11.918;2023-02-26T00:09:59;13.50;99.90
39315;DHT22;28703;44.412;11.918;2023-02-26T00:12:29;13.50;99.90
39315;DHT22;28703;44.412;11.918;2023-02-26T00:14:56;13.50;99.90
39315;DHT22;28703;44.412;11.918;2023-02-26T00:19:57;13.50;99.90
39315;DHT22;28703;44.412;11.918;2023-02-26T00:22:24;13.50;99.90
39315;DHT22;28703;44.412;11.918;2023-02-26T00:24:50;13.50;99.90
39315;DHT22;28703;44.412;11.918;2023-02-26T00:27:16;13.50;99.90
39315;DHT22;28703;44.412;11.918;2023-02-26T00:29:42;13.50;99.90
39315;DHT22;28703;44.412;11.918;2023-02-26T00:32:09;13.50;99.90
39315;DHT22;28703;44.412;11.918;2023-02-26T00:34:36;13.50;99.90
39315;DHT22;28703;44.412;11.918;2023-02-26T00:42:12;13.50;99.90
39315;DHT22;28703;44.412;11.918;2023-02-26T00:44:38;13.60;99.90
39315;DHT22;28703;44.412;11.918;2023-02-26T00:47:08;13.50;99.90
39315;DHT22;28703;44.412;11.918;2023-02-26T00:49:46;13.60;99.90
39315;DHT22;28703;44.412;11.918;2023-02-26T00:55:19;13.50;99.90
39315;DHT22;28703;44.412;11.918;2023-02-26T00:57:45;13.50;99.90
39315;DHT22;28703;44.412;11.918;2023-02-26T01:00:11;13.50;99.90
39315;DHT22;28703;44.412;11.918;2023-02-26T01:02:38;13.50;99.90
39315;DHT22;28703;44.412;11.918;2023-02-26T01:05:05;13.50;99.90
39315;DHT22;28703;44.412;11.918;2023-02-26T01:07:49;13.50;99.90
39315;DHT22;28703;44.412;11.918;2023-02-26T01:10:19;13.50;99.90
39315;DHT22;28703;44.412;11.918;2023-02-26T01:12:46;13.50;99.90
39315;DHT22;28703;44.412;11.918;2023-02-26T01:15:12;13.40;99.90
39315;DHT22;28703;44.412;11.918;2023-02-26T01:17:54;13.40;99.90
39315;DHT22;28703;44.412;11.918;2023-02-26T01:20:50;13.40;99.90
39315;DHT22;28703;44.412;11.918;2023-02-26T01:23:21;13.40;99.90
39315;DHT22;28703;44.412;11.918;2023-02-26T01:25:52;13.40;99.90
39315;DHT22;28703;44.412;11.918;2023-02-26T01:28:21;13.30;99.90
39315;DHT22;28703;44.412;11.918;2023-02-26T01:30:56;13.30;99.90
39315;DHT22;28703;44.412;11.918;2023-02-26T01:33:43;13.30;99.90
39315;DHT22;28703;44.412;11.918;2023-02-26T01:36:16;13.30;99.90
39315;DHT22;28703;44.412;11.918;2023-02-26T01:47:39;13.20;99.90
39315;DHT22;28703;44.412;11.918;2023-02-26T01:49:56;13.10;99.90
39315;DHT22;28703;44.412;11.918;2023-02-26T01:55:26;13.00;99.90
39315;DHT22;28703;44.412;11.918;2023-02-26T01:57:55;13.00;99.90
39315;DHT22;28703;44.412;11.918;2023-02-26T02:00:23;12.90;99.90
39315;DHT22;28703;44.412;11.918;2023-02-26T02:43:30;12.90;99.90
39315;DHT22;28703;44.412;11.918;2023-02-26T02:46:03;12.90;99.90
39315;DHT22;28703;44.412;11.918;2023-02-26T02:48:40;12.90;99.90
39315;DHT22;28703;44.412;11.918;2023-02-26T02:51:15;12.90;99.90
39315;DHT22;28703;44.412;11.918;2023-02-26T02:56:20;12.90;99.90
39315;DHT22;28703;44.412;11.918;2023-02-26T02:59:00;13.00;99.90
39315;DHT22;28703;44.412;11.918;2023-02-26T03:01:28;12.90;99.90
39315;DHT22;28703;44.412;11.918;2023-02-26T03:03:58;12.90;99.90
39315;DHT22;28703;44.412;11.918;2023-02-26T03:06:26;12.90;99.90
39315;DHT22;28703;44.412;11.918;2023-02-26T03:08:53;12.90;99.90
39315;DHT22;28703;44.412;11.918;2023-02-26T03:11:22;13.00;99.90
39315;DHT22;28703;44.412;11.918;2023-02-26T03:13:49;12.90;99.90
39315;DHT22;28703;44.412;11.918;2023-02-26T03:22:16;13.00;99.90
39315;DHT22;28703;44.412;11.918;2023-02-26T03:27:36;12.90;99.90
39315;DHT22;28703;44.412;11.918;2023-02-26T03:35:46;13.00;99.90
39315;DHT22;28703;44.412;11.918;2023-02-26T03:38:51;12.90;99.90
39315;DHT22;28703;44.412;11.918;2023-02-26T03:41:51;13.00;99.90
39315;DHT22;28703;44.412;11.918;2023-02-26T03:44:31;12.90;99.90
39315;DHT22;28703;44.412;11.918;2023-02-26T03:47:02;12.90;99.90
39315;DHT22;28703;44.412;11.918;2023-02-26T03:49:37;12.90;99.90
39315;DHT22;28703;44.412;11.918;2023-02-26T03:52:05;12.80;99.90
39315;DHT22;28703;44.412;11.918;2023-02-26T03:55:09;12.80;99.90
39315;DHT22;28703;44.412;11.918;2023-02-26T03:57:53;12.60;99.90
39315;DHT22;28703;44.412;11.918;2023-02-26T04:00:51;12.50;99.90
39315;DHT22;28703;44.412;11.918;2023-02-26T04:05:52;12.20;99.90
39315;DHT22;28703;44.412;11.918;2023-02-26T04:08:20;12.10;99.90
39315;DHT22;28703;44.412;11.918;2023-02-26T04:10:56;12.10;99.90
39315;DHT22;28703;44.412;11.918;2023-02-26T04:13:23;11.90;99.90
39315;DHT22;28703;44.412;11.918;2023-02-26T04:15:50;11.80;99.90
39315;DHT22;28703;44.412;11.918;2023-02-26T04:18:16;11.60;99.90
39315;DHT22;28703;44.412;11.918;2023-02-26T04:20:42;11.50;99.90
39315;DHT22;28703;44.412;11.918;2023-02-26T04:23:09;11.40;99.90
39315;DHT22;28703;44.412;11.918;2023-02-26T04:25:35;11.20;99.90
39315;DHT22;28703;44.412;11.918;2023-02-26T04:28:01;11.10;99.90
39315;DHT22;28703;44.412;11.918;2023-02-26T04:30:28;11.00;99.90
39315;DHT22;28703;44.412;11.918;2023-02-26T04:32:55;10.90;99.90
39315;DHT22;28703;44.412;11.918;2023-02-26T04:35:22;10.80;99.90
39315;DHT22;28703;44.412;11.918;2023-02-26T04:37:48;10.70;99.90
39315;DHT22;28703;44.412;11.918;2023-02-26T04:40:14;10.60;99.90
39315;DHT22;28703;44.412;11.918;2023-02-26T04:42:41;10.60;99.90
39315;DHT22;28703;44.412;11.918;2023-02-26T04:45:07;10.50;99.90
39315;DHT22;28703;44.412;11.918;2023-02-26T04:47:36;10.50;99.90
39315;DHT22;28703;44.412;11.918;2023-02-26T04:50:03;10.40;99.90
39315;DHT22;28703;44.412;11.918;2023-02-26T04:52:30;10.40;99.90
39315;DHT22;28703;44.412;11.918;2023-02-26T04:54:56;10.30;99.90
39315;DHT22;28703;44.412;11.918;2023-02-26T04:57:23;10.20;99.90
39315;DHT22;28703;44.412;11.918;2023-02-26T04:59:50;10.20;99.90
39315;DHT22;28703;44.412;11.918;2023-02-26T05:02:17;10.10;99.90
39315;DHT22;28703;44.412;11.918;2023-02-26T05:04:50;10.10;99.90
39315;DHT22;28703;44.412;11.918;2023-02-26T05:07:16;10.00;99.90
39315;DHT22;28703;44.412;11.918;2023-02-26T05:09:42;10.00;99.90
39315;DHT22;28703;44.412;11.918;2023-02-26T05:12:08;10.00;99.90
39315;DHT22;28703;44.412;11.918;2023-02-26T05:14:34;10.00;99.90
39315;DHT22;28703;44.412;11.918;2023-02-26T05:17:00;9.90;99.90
39315;DHT22;28703;44.412;11.918;2023-02-26T05:19:26;9.90;99.90
39315;DHT22;28703;44.412;11.918;2023-02-26T05:21:53;9.80;99.90
39315;DHT22;28703;44.412;11.918;2023-02-26T05:24:19;9.70;99.90
39315;DHT22;28703;44.412;11.918;2023-02-26T05:26:45;9.70;99.90
39315;DHT22;28703;44.412;11.918;2023-02-26T05:29:12;9.60;99.90
39315;DHT22;28703;44.412;11.918;2023-02-26T05:31:38;9.50;99.90
39315;DHT22;28703;44.412;11.918;2023-02-26T05:34:04;9.50;99.90
39315;DHT22;28703;44.412;11.918;2023-02-26T05:36:30;9.50;99.90
39315;DHT22;28703;44.412;11.918;2023-02-26T05:38:56;9.50;99.90
39315;DHT22;28703;44.412;11.918;2023-02-26T05:41:22;9.50;99.90
39315;DHT22;28703;44.412;11.918;2023-02-26T05:43:49;9.40;99.90
39315;DHT22;28703;44.412;11.918;2023-02-26T05:46:18;9.40;99.90
39315;DHT22;28703;44.412;11.918;2023-02-26T05:48:43;9.30;99.90
39315;DHT22;28703;44.412;11.918;2023-02-26T05:51:16;9.30;99.90
39315;DHT22;28703;44.412;11.918;2023-02-26T05:53:51;9.30;99.90
39315;DHT22;28703;44.412;11.918;2023-02-26T05:56:17;9.20;99.90
39315;DHT22;28703;44.412;11.918;2023-02-26T05:58:46;9.20;99.90
39315;DHT22;28703;44.412;11.918;2023-02-26T06:01:13;9.20;99.90
39315;DHT22;28703;44.412;11.918;2023-02-26T06:03:39;9.20;99.90
39315;DHT22;28703;44.412;11.918;2023-02-26T06:06:12;9.10;99.90
39315;DHT22;28703;44.412;11.918;2023-02-26T06:08:40;9.10;99.90
39315;DHT22;28703;44.412;11.918;2023-02-26T06:11:07;9.10;99.90
39315;DHT22;28703;44.412;11.918;2023-02-26T06:13:33;9.10;99.90
39315;DHT22;28703;44.412;11.918;2023-02-26T06:15:59;9.10;99.90
39315;DHT22;28703;44.412;11.918;2023-02-26T06:18:24;9.20;99.90
39315;DHT22;28703;44.412;11.918;2023-02-26T06:20:50;9.20;99.90
39315;DHT22;28703;44.412;11.918;2023-02-26T06:23:16;9.20;99.90
39315;DHT22;28703;44.412;11.918;2023-02-26T06:25:43;9.20;99.90
39315;DHT22;28703;44.412;11.918;2023-02-26T06:28:10;9.20;99.90
39315;DHT22;28703;44.412;11.918;2023-02-26T06:30:36;9.20;99.90
39315;DHT22;28703;44.412;11.918;2023-02-26T06:33:03;9.20;99.90
39315;DHT22;28703;44.412;11.918;2023-02-26T06:35:29;9.20;99.90
39315;DHT22;28703;44.412;11.918;2023-02-26T06:37:56;9.10;99.90
39315;DHT22;28703;44.412;11.918;2023-02-26T06:40:22;9.10;99.90
39315;DHT22;28703;44.412;11.918;2023-02-26T06:42:48;9.10;99.90
39315;DHT22;28703;44.412;11.918;2023-02-26T06:45:14;9.10;99.90
39315;DHT22;28703;44.412;11.918;2023-02-26T06:47:43;9.10;99.90
39315;DHT22;28703;44.412;11.918;2023-02-26T06:50:10;9.10;99.90
39315;DHT22;28703;44.412;11.918;2023-02-26T06:52:36;9.00;99.90
39315;DHT22;28703;44.412;11.918;2023-02-26T06:55:03;9.00;99.90
39315;DHT22;28703;44.412;11.918;2023-02-26T06:57:29;9.00;99.90
39315;DHT22;28703;44.412;11.918;2023-02-26T06:59:57;9.00;99.90
39315;DHT22;28703;44.412;11.918;2023-02-26T07:02:23;9.10;99.90
39315;DHT22;28703;44.412;11.918;2023-02-26T07:04:51;9.10;99.90
39315;DHT22;28703;44.412;11.918;2023-02-26T07:07:17;9.10;99.90
39315;DHT22;28703;44.412;11.918;2023-02-26T07:09:43;9.10;99.90
39315;DHT22;28703;44.412;11.918;2023-02-26T07:12:09;9.20;99.90
39315;DHT22;28703;44.412;11.918;2023-02-26T07:14:36;9.10;99.90
39315;DHT22;28703;44.412;11.918;2023-02-26T07:17:02;9.10;99.90
39315;DHT22;28703;44.412;11.918;2023-02-26T07:19:29;9.20;99.90
39315;DHT22;28703;44.412;11.918;2023-02-26T07:21:55;9.20;99.90
39315;DHT22;28703;44.412;11.918;2023-02-26T07:24:21;9.20;99.90
39315;DHT22;28703;44.412;11.918;2023-02-26T07:26:48;9.20;99.90
39315;DHT22;28703;44.412;11.918;2023-02-26T07:29:14;9.20;99.90
39315;DHT22;28703;44.412;11.918;2023-02-26T07:31:42;9.20;99.90
39315;DHT22;28703;44.412;11.918;2023-02-26T07:34:08;9.20;99.90
39315;DHT22;28703;44.412;11.918;2023-02-26T07:36:43;9.20;99.90
39315;DHT22;28703;44.412;11.918;2023-02-26T07:39:11;9.30;99.90
39315;DHT22;28703;44.412;11.918;2023-02-26T07:41:37;9.20;99.90
39315;DHT22;28703;44.412;11.918;2023-02-26T07:44:08;9.20;99.90
39315;DHT22;28703;44.412;11.918;2023-02-26T07:46:36;9.20;99.90
39315;DHT22;28703;44.412;11.918;2023-02-26T07:49:02;9.20;99.90
39315;DHT22;28703;44.412;11.918;2023-02-26T07:51:28;9.20;99.90
39315;DHT22;28703;44.412;11.918;2023-02-26T07:53:55;9.20;99.90
39315;DHT22;28703;44.412;11.918;2023-02-26T07:56:21;9.20;99.90
39315;DHT22;28703;44.412;11.918;2023-02-26T07:58:47;9.10;99.90
39315;DHT22;28703;44.412;11.918;2023-02-26T08:01:14;9.10;99.90
39315;DHT22;28703;44.412;11.918;2023-02-26T08:03:40;9.10;99.90
39315;DHT22;28703;44.412;11.918;2023-02-26T08:06:07;9.10;99.90
39315;DHT22;28703;44.412;11.918;2023-02-26T08:08:35;9.10;99.90
39315;DHT22;28703;44.412;11.918;2023-02-26T08:11:04;9.10;99.90
39315;DHT22;28703;44.412;11.918;2023-02-26T08:13:30;9.20;99.90
39315;DHT22;28703;44.412;11.918;2023-02-26T08:16:02;9.20;99.90
39315;DHT22;28703;44.412;11.918;2023-02-26T08:18:28;9.10;99.90
39315;DHT22;28703;44.412;11.918;2023-02-26T08:20:54;9.20;99.90
39315;DHT22;28703;44.412;11.918;2023-02-26T08:23:20;9.20;99.90
39315;DHT22;28703;44.412;11.918;2023-02-26T08:25:46;9.20;99.90
39315;DHT22;28703;44.412;11.918;2023-02-26T08:28:13;9.20;99.90
39315;DHT22;28703;44.412;11.918;2023-02-26T08:30:39;9.30;99.90
39315;DHT22;28703;44.412;11.918;2023-02-26T08:33:05;9.30;99.90
39315;DHT22;28703;44.412;11.918;2023-02-26T08:35:31;9.30;99.90
39315;DHT22;28703;44.412;11.918;2023-02-26T08:38:00;9.30;99.90
39315;DHT22;28703;44.412;11.918;2023-02-26T08:40:26;9.40;99.90
39315;DHT22;28703;44.412;11.918;2023-02-26T08:42:52;9.40;99.90
39315;DHT22;28703;44.412;11.918;2023-02-26T08:45:18;9.40;99.90
39315;DHT22;28703;44.412;11.918;2023-02-26T08:47:44;9.40;99.90
39315;DHT22;28703;44.412;11.918;2023-02-26T08:50:11;9.40;99.90
39315;DHT22;28703;44.412;11.918;2023-02-26T08:52:37;9.40;99.90
39315;DHT22;28703;44.412;11.918;2023-02-26T08:55:07;9.40;99.90
39315;DHT22;28703;44.412;11.918;2023-02-26T08:57:34;9.40;99.90
39315;DHT22;28703;44.412;11.918;2023-02-26T09:00:04;9.40;99.90
39315;DHT22;28703;44.412;11.918;2023-02-26T09:02:30;9.30;99.90
39315;DHT22;28703;44.412;11.918;2023-02-26T09:05:00;9.30;99.90
39315;DHT22;28703;44.412;11.918;2023-02-26T09:07:29;9.30;99.90
39315;DHT22;28703;44.412;11.918;2023-02-26T09:10:00;9.20;99.90
39315;DHT22;28703;44.412;11.918;2023-02-26T09:12:26;9.20;99.90
39315;DHT22;28703;44.412;11.918;2023-02-26T09:14:52;9.20;99.90
39315;DHT22;28703;44.412;11.918;2023-02-26T09:17:24;9.20;99.90
39315;DHT22;28703;44.412;11.918;2023-02-26T09:19:50;9.20;99.90
39315;DHT22;28703;44.412;11.918;2023-02-26T09:22:16;9.20;99.90
39315;DHT22;28703;44.412;11.918;2023-02-26T09:24:42;9.20;99.90
39315;DHT22;28703;44.412;11.918;2023-02-26T09:27:11;9.20;99.90
39315;DHT22;28703;44.412;11.918;2023-02-26T09:29:41;9.10;99.90
39315;DHT22;28703;44.412;11.918;2023-02-26T09:32:07;9.00;99.90
39315;DHT22;28703;44.412;11.918;2023-02-26T09:34:34;9.00;99.90
39315;DHT22;28703;44.412;11.918;2023-02-26T09:37:04;9.00;99.90
39315;DHT22;28703;44.412;11.918;2023-02-26T09:39:32;9.00;99.90
39315;DHT22;28703;44.412;11.918;2023-02-26T09:44:46;9.10;99.90
39315;DHT22;28703;44.412;11.918;2023-02-26T09:47:24;9.00;99.90
39315;DHT22;28703;44.412;11.918;2023-02-26T09:55:47;8.80;99.90
39315;DHT22;28703;44.412;11.918;2023-02-26T10:01:13;8.90;99.90
39315;DHT22;28703;44.412;11.918;2023-02-26T10:06:54;8.90;99.90
39315;DHT22;28703;44.412;11.918;2023-02-26T10:09:40;9.00;99.90
39315;DHT22;28703;44.412;11.918;2023-02-26T10:12:19;9.00;99.90
39315;DHT22;28703;44.412;11.918;2023-02-26T10:15:08;9.00;99.90
39315;DHT22;28703;44.412;11.918;2023-02-26T10:23:51;9.00;99.90
39315;DHT22;28703;44.412;11.918;2023-02-26T10:26:34;8.90;99.90
39315;DHT22;28703;44.412;11.918;2023-02-26T10:29:32;8.90;99.90
39315;DHT22;28703;44.412;11.918;2023-02-26T10:37:20;9.00;99.90
39315;DHT22;28703;44.412;11.918;2023-02-26T10:39:59;8.90;99.90
39315;DHT22;28703;44.412;11.918;2023-02-26T10:48:44;8.80;99.90
39315;DHT22;28703;44.412;11.918;2023-02-26T10:51:25;8.80;99.90
39315;DHT22;28703;44.412;11.918;2023-02-26T10:54:20;8.80;99.90
39315;DHT22;28703;44.412;11.918;2023-02-26T10:56:50;8.90;99.90
39315;DHT22;28703;44.412;11.918;2023-02-26T10:59:20;8.90;99.90
39315;DHT22;28703;44.412;11.918;2023-02-26T11:01:54;8.90;99.90
39315;DHT22;28703;44.412;11.918;2023-02-26T11:04:27;8.90;99.90
39315;DHT22;28703;44.412;11.918;2023-02-26T11:07:37;8.90;99.90
39315;DHT22;28703;44.412;11.918;2023-02-26T11:10:19;8.90;99.90
39315;DHT22;28703;44.412;11.918;2023-02-26T11:12:53;8.90;99.90
39315;DHT22;28703;44.412;11.918;2023-02-26T11:15:24;8.90;99.90
39315;DHT22;28703;44.412;11.918;2023-02-26T11:18:00;9.00;99.90
39315;DHT22;28703;44.412;11.918;2023-02-26T11:20:50;9.00;99.90
39315;DHT22;28703;44.412;11.918;2023-02-26T11:23:23;9.10;99.90
39315;DHT22;28703;44.412;11.918;2023-02-26T11:26:14;9.10;99.90
39315;DHT22;28703;44.412;11.918;2023-02-26T11:28:54;9.10;99.90
39315;DHT22;28703;44.412;11.918;2023-02-26T11:31:27;9.10;99.90
39315;DHT22;28703;44.412;11.918;2023-02-26T11:34:11;9.00;99.90
39315;DHT22;28703;44.412;11.918;2023-02-26T11:36:46;9.00;99.90
39315;DHT22;28703;44.412;11.918;2023-02-26T11:39:41;9.10;99.90
39315;DHT22;28703;44.412;11.918;2023-02-26T11:42:15;9.10;99.90
39315;DHT22;28703;44.412;11.918;2023-02-26T11:44:45;9.00;99.90
39315;DHT22;28703;44.412;11.918;2023-02-26T11:47:21;9.00;99.90
39315;DHT22;28703;44.412;11.918;2023-02-26T11:50:19;9.10;99.90
39315;DHT22;28703;44.412;11.918;2023-02-26T11:53:18;9.00;99.90
39315;DHT22;28703;44.412;11.918;2023-02-26T11:55:52;9.10;99.90
39315;DHT22;28703;44.412;11.918;2023-02-26T11:58:24;9.10;99.90
39315;DHT22;28703;44.412;11.918;2023-02-26T12:00:58;9.10;99.90
39315;DHT22;28703;44.412;11.918;2023-02-26T12:03:42;9.20;99.90
39315;DHT22;28703;44.412;11.918;2023-02-26T12:08:39;9.20;99.90
39315;DHT22;28703;44.412;11.918;2023-02-26T12:20:16;9.20;99.90
39315;DHT22;28703;44.412;11.918;2023-02-26T12:47:38;9.10;99.90
39315;DHT22;28703;44.412;11.918;2023-02-26T13:13:36;8.50;99.90
39315;DHT22;28703;44.412;11.918;2023-02-26T13:19:20;8.40;99.90
39315;DHT22;28703;44.412;11.918;2023-02-26T13:22:16;8.40;99.90
39315;DHT22;28703;44.412;11.918;2023-02-26T13:25:18;8.30;99.90
39315;DHT22;28703;44.412;11.918;2023-02-26T13:27:45;8.20;99.90
39315;DHT22;28703;44.412;11.918;2023-02-26T13:30:35;8.20;99.90
39315;DHT22;28703;44.412;11.918;2023-02-26T13:33:24;8.20;99.90
39315;DHT22;28703;44.412;11.918;2023-02-26T13:35:57;8.20;99.90
39315;DHT22;28703;44.412;11.918;2023-02-26T14:04:56;7.90;99.90
39315;DHT22;28703;44.412;11.918;2023-02-26T14:07:51;7.90;99.90
39315;DHT22;28703;44.412;11.918;2023-02-26T14:10:26;7.90;99.90
39315;DHT22;28703;44.412;11.918;2023-02-26T14:13:13;7.80;99.90
39315;DHT22;28703;44.412;11.918;2023-02-26T14:21:34;7.80;99.90
39315;DHT22;28703;44.412;11.918;2023-02-26T14:26:36;7.80;99.90
39315;DHT22;28703;44.412;11.918;2023-02-26T14:31:54;7.80;99.90
39315;DHT22;28703;44.412;11.918;2023-02-26T14:37:18;7.80;99.90
39315;DHT22;28703;44.412;11.918;2023-02-26T14:42:56;7.80;99.90
39315;DHT22;28703;44.412;11.918;2023-02-26T14:45:38;7.80;99.90
39315;DHT22;28703;44.412;11.918;2023-02-26T14:48:20;7.70;99.90
39315;DHT22;28703;44.412;11.918;2023-02-26T14:53:49;7.70;99.90
39315;DHT22;28703;44.412;11.918;2023-02-26T14:59:52;7.70;99.90
39315;DHT22;28703;44.412;11.918;2023-02-26T15:02:44;7.70;99.90
39315;DHT22;28703;44.412;11.918;2023-02-26T15:08:33;7.70;99.90
39315;DHT22;28703;44.412;11.918;2023-02-26T15:23:46;7.40;99.90
39315;DHT22;28703;44.412;11.918;2023-02-26T15:29:09;7.40;99.90
39315;DHT22;28703;44.412;11.918;2023-02-26T15:32:05;7.40;99.90
39315;DHT22;28703;44.412;11.918;2023-02-26T15:39:05;7.40;99.90
39315;DHT22;28703;44.412;11.918;2023-02-26T15:41:49;7.40;99.90
39315;DHT22;28703;44.412;11.918;2023-02-26T15:44:38;7.40;99.90
39315;DHT22;28703;44.412;11.918;2023-02-26T15:47:35;7.40;99.90
39315;DHT22;28703;44.412;11.918;2023-02-26T15:50:14;7.40;99.90
39315;DHT22;28703;44.412;11.918;2023-02-26T15:59:37;7.40;99.90
39315;DHT22;28703;44.412;11.918;2023-02-26T16:05:39;7.40;99.90
39315;DHT22;28703;44.412;11.918;2023-02-26T16:08:31;7.40;99.90
39315;DHT22;28703;44.412;11.918;2023-02-26T16:11:01;7.40;99.90
39315;DHT22;28703;44.412;11.918;2023-02-26T16:13:34;7.50;99.90
39315;DHT22;28703;44.412;11.918;2023-02-26T16:18:54;7.40;99.90
39315;DHT22;28703;44.412;11.918;2023-02-26T16:21:30;7.50;99.90
39315;DHT22;28703;44.412;11.918;2023-02-26T16:23:58;7.50;99.90
39315;DHT22;28703;44.412;11.918;2023-02-26T16:26:33;7.50;99.90
39315;DHT22;28703;44.412;11.918;2023-02-26T16:29:03;7.50;99.90
39315;DHT22;28703;44.412;11.918;2023-02-26T16:31:31;7.50;99.90
39315;DHT22;28703;44.412;11.918;2023-02-26T16:34:06;7.50;99.90
39315;DHT22;28703;44.412;11.918;2023-02-26T16:36:40;7.50;99.90
39315;DHT22;28703;44.412;11.918;2023-02-26T16:41:36;7.50;99.90
39315;DHT22;28703;44.412;11.918;2023-02-26T16:44:09;7.60;99.90
39315;DHT22;28703;44.412;11.918;2023-02-26T16:46:57;7.50;99.90
39315;DHT22;28703;44.412;11.918;2023-02-26T16:49:32;7.50;99.90
39315;DHT22;28703;44.412;11.918;2023-02-26T16:52:00;7.50;99.90
39315;DHT22;28703;44.412;11.918;2023-02-26T16:54:31;7.30;99.90
39315;DHT22;28703;44.412;11.918;2023-02-26T16:57:10;7.40;99.90
39315;DHT22;28703;44.412;11.918;2023-02-26T16:59:39;7.40;99.90
39315;DHT22;28703;44.412;11.918;2023-02-26T17:02:17;7.40;99.90
39315;DHT22;28703;44.412;11.918;2023-02-26T17:04:56;7.40;99.90
39315;DHT22;28703;44.412;11.918;2023-02-26T17:10:03;7.40;99.90
39315;DHT22;28703;44.412;11.918;2023-02-26T17:15:25;7.40;99.90
39315;DHT22;28703;44.412;11.918;2023-02-26T17:17:52;7.40;99.90
39315;DHT22;28703;44.412;11.918;2023-02-26T17:20:23;7.40;99.90
39315;DHT22;28703;44.412;11.918;2023-02-26T17:22:49;7.40;99.90
39315;DHT22;28703;44.412;11.918;2023-02-26T17:25:16;7.40;99.90
39315;DHT22;28703;44.412;11.918;2023-02-26T17:27:44;7.40;99.90
39315;DHT22;28703;44.412;11.918;2023-02-26T17:30:18;7.40;99.90
39315;DHT22;28703;44.412;11.918;2023-02-26T17:32:44;7.40;99.90
39315;DHT22;28703;44.412;11.918;2023-02-26T17:35:15;7.30;99.90
39315;DHT22;28703;44.412;11.918;2023-02-26T17:37:43;7.30;99.90
39315;DHT22;28703;44.412;11.918;2023-02-26T17:40:19;7.30;99.90
39315;DHT22;28703;44.412;11.918;2023-02-26T17:42:45;7.30;99.90
39315;DHT22;28703;44.412;11.918;2023-02-26T17:45:12;7.30;99.90
39315;DHT22;28703;44.412;11.918;2023-02-26T17:47:40;7.30;99.90
39315;DHT22;28703;44.412;11.918;2023-02-26T17:53:15;7.30;99.90
39315;DHT22;28703;44.412;11.918;2023-02-26T17:55:42;7.30;99.90
39315;DHT22;28703;44.412;11.918;2023-02-26T17:58:32;7.30;99.90
39315;DHT22;28703;44.412;11.918;2023-02-26T18:00:59;7.30;99.90
39315;DHT22;28703;44.412;11.918;2023-02-26T18:03:29;7.30;99.90
39315;DHT22;28703;44.412;11.918;2023-02-26T18:05:55;7.30;99.90
39315;DHT22;28703;44.412;11.918;2023-02-26T18:08:30;7.30;99.90
39315;DHT22;28703;44.412;11.918;2023-02-26T18:10:58;7.30;99.90
39315;DHT22;28703;44.412;11.918;2023-02-26T18:13:25;7.30;99.90
39315;DHT22;28703;44.412;11.918;2023-02-26T18:15:52;7.40;99.90
39315;DHT22;28703;44.412;11.918;2023-02-26T18:18:19;7.40;99.90
39315;DHT22;28703;44.412;11.918;2023-02-26T18:20:46;7.40;99.90
39315;DHT22;28703;44.412;11.918;2023-02-26T18:23:12;7.40;99.90
39315;DHT22;28703;44.412;11.918;2023-02-26T18:25:43;7.40;99.90
39315;DHT22;28703;44.412;11.918;2023-02-26T18:28:24;7.40;99.90
39315;DHT22;28703;44.412;11.918;2023-02-26T18:30:51;7.40;99.90
39315;DHT22;28703;44.412;11.918;2023-02-26T18:33:18;7.40;99.90
39315;DHT22;28703;44.412;11.918;2023-02-26T18:35:48;7.40;99.90
39315;DHT22;28703;44.412;11.918;2023-02-26T18:38:18;7.40;99.90
39315;DHT22;28703;44.412;11.918;2023-02-26T18:40:45;7.50;99.90
39315;DHT22;28703;44.412;11.918;2023-02-26T18:43:13;7.50;99.90
39315;DHT22;28703;44.412;11.918;2023-02-26T18:45:42;7.50;99.90
39315;DHT22;28703;44.412;11.918;2023-02-26T18:48:13;7.50;99.90
39315;DHT22;28703;44.412;11.918;2023-02-26T18:50:41;7.50;99.90
39315;DHT22;28703;44.412;11.918;2023-02-26T18:53:08;7.60;99.90
39315;DHT22;28703;44.412;11.918;2023-02-26T18:55:34;7.50;99.90
39315;DHT22;28703;44.412;11.918;2023-02-26T18:58:00;7.50;99.90
39315;DHT22;28703;44.412;11.918;2023-02-26T19:00:26;7.50;99.90
39315;DHT22;28703;44.412;11.918;2023-02-26T19:02:54;7.50;99.90
39315;DHT22;28703;44.412;11.918;2023-02-26T19:05:20;7.40;99.90
39315;DHT22;28703;44.412;11.918;2023-02-26T19:07:50;7.40;99.90
39315;DHT22;28703;44.412;11.918;2023-02-26T19:10:17;7.40;99.90
39315;DHT22;28703;44.412;11.918;2023-02-26T19:12:44;7.50;99.90
39315;DHT22;28703;44.412;11.918;2023-02-26T19:15:11;7.40;99.90
39315;DHT22;28703;44.412;11.918;2023-02-26T19:17:38;7.40;99.90
39315;DHT22;28703;44.412;11.918;2023-02-26T19:20:06;7.40;99.90
39315;DHT22;28703;44.412;11.918;2023-02-26T19:22:32;7.40;99.90
39315;DHT22;28703;44.412;11.918;2023-02-26T19:25:01;7.40;99.90
39315;DHT22;28703;44.412;11.918;2023-02-26T19:27:27;7.40;99.90
39315;DHT22;28703;44.412;11.918;2023-02-26T19:29:53;7.40;99.90
39315;DHT22;28703;44.412;11.918;2023-02-26T19:32:20;7.40;99.90
39315;DHT22;28703;44.412;11.918;2023-02-26T19:34:55;7.40;99.90
39315;DHT22;28703;44.412;11.918;2023-02-26T19:37:22;7.40;99.90
39315;DHT22;28703;44.412;11.918;2023-02-26T19:39:48;7.40;99.90
39315;DHT22;28703;44.412;11.918;2023-02-26T19:42:16;7.40;99.90
39315;DHT22;28703;44.412;11.918;2023-02-26T19:44:42;7.40;99.90
39315;DHT22;28703;44.412;11.918;2023-02-26T19:47:08;7.40;99.90
39315;DHT22;28703;44.412;11.918;2023-02-26T19:49:34;7.40;99.90
39315;DHT22;28703;44.412;11.918;2023-02-26T19:52:00;7.50;99.90
39315;DHT22;28703;44.412;11.918;2023-02-26T19:54:26;7.40;99.90
39315;DHT22;28703;44.412;11.918;2023-02-26T19:56:52;7.40;99.90
39315;DHT22;28703;44.412;11.918;2023-02-26T19:59:18;7.40;99.90
39315;DHT22;28703;44.412;11.918;2023-02-26T20:01:49;7.40;99.90
39315;DHT22;28703;44.412;11.918;2023-02-26T20:04:17;7.30;99.90
39315;DHT22;28703;44.412;11.918;2023-02-26T20:06:43;7.20;99.90
39315;DHT22;28703;44.412;11.918;2023-02-26T20:09:10;7.20;99.90
39315;DHT22;28703;44.412;11.918;2023-02-26T20:11:40;7.20;99.90
39315;DHT22;28703;44.412;11.918;2023-02-26T20:14:20;7.30;99.90
39315;DHT22;28703;44.412;11.918;2023-02-26T20:16:53;7.30;99.90
39315;DHT22;28703;44.412;11.918;2023-02-26T20:19:19;7.30;99.90
39315;DHT22;28703;44.412;11.918;2023-02-26T20:21:49;7.30;99.90
39315;DHT22;28703;44.412;11.918;2023-02-26T20:24:16;7.30;99.90
39315;DHT22;28703;44.412;11.918;2023-02-26T20:26:45;7.30;99.90